Time;durP1;ratioP1;P1;durP2;ratioP2;P2;SDS_P1;SDS_P2;PMS_P1;PMS_P2;Temp;Humidity;BMP_temperature;BMP_pressure;BME280_temperature;BME280_humidity;BME280_pressure;Samples;Min_cycle;Max_cycle;Signal;HPM_P1;HPM_P2
2024/04/06 00:03:10;;;;;;;1.73;0.80;;;;;;;;;;10169533;29;20043;-82
2024/04/06 00:08:13;;;;;;;2.15;0.73;;;;;;;;;;10176013;29;20070;-82
2024/04/06 00:13:16;;;;;;;1.05;0.50;;;;;;;;;;10196502;29;20081;-82
2024/04/06 00:18:18;;;;;;;1.02;0.55;;;;;;;;;;10169773;29;20114;-82
2024/04/06 00:23:22;;;;;;;1.13;0.80;;;;;;;;;;10174646;29;20047;-83
2024/04/06 00:28:25;;;;;;;0.93;0.57;;;;;;;;;;10187046;29;20055;-82
2024/04/06 00:33:29;;;;;;;1.55;0.70;;;;;;;;;;10192551;29;20053;-82
2024/04/06 00:38:32;;;;;;;0.77;0.40;;;;;;;;;;10168156;29;20047;-82
2024/04/06 00:43:35;;;;;;;0.70;0.45;;;;;;;;;;10191928;29;20082;-82
2024/04/06 00:48:37;;;;;;;0.90;0.40;;;;;;;;;;10176779;29;20057;-82
2024/04/06 00:53:42;;;;;;;1.08;0.43;;;;;;;;;;10190848;29;22542;-82
2024/04/06 00:58:45;;;;;;;0.65;0.38;;;;;;;;;;10174288;29;20048;-82
2024/04/06 01:03:47;;;;;;;0.60;0.60;;;;;;;;;;10181928;29;20058;-82
2024/04/06 01:08:51;;;;;;;0.98;0.60;;;;;;;;;;10214325;28;20405;-82
2024/04/06 01:13:54;;;;;;;1.08;0.50;;;;;;;;;;10227533;28;20048;-82
2024/04/06 01:18:56;;;;;;;0.70;0.57;;;;;;;;;;10231169;28;20103;-82
2024/04/06 01:24:03;;;;;;;1.48;0.60;;;;;;;;;;10234194;28;20063;-82
2024/04/06 01:29:06;;;;;;;0.52;0.30;;;;;;;;;;10189956;29;20159;-82
2024/04/06 01:34:09;;;;;;;0.50;0.50;;;;;;;;;;10190722;29;20138;-82
2024/04/06 01:39:16;;;;;;;1.63;0.63;;;;;;;;;;10191247;29;20111;-82
2024/04/06 01:44:18;;;;;;;1.17;0.73;;;;;;;;;;10195022;29;20135;-82
2024/04/06 01:49:21;;;;;;;1.20;0.80;;;;;;;;;;10194695;29;20099;-82
2024/04/06 01:54:25;;;;;;;1.08;0.70;;;;;;;;;;10195522;29;20079;-82
2024/04/06 01:59:28;;;;;;;1.83;0.90;;;;;;;;;;10185953;29;20642;-82
2024/04/06 02:04:30;;;;;;;2.03;1.02;;;;;;;;;;10189372;29;20054;-82
2024/04/06 02:09:34;;;;;;;3.55;1.20;;;;;;;;;;10178411;29;20569;-81
2024/04/06 02:14:37;;;;;;;2.47;1.00;;;;;;;;;;10203762;29;20540;-81
2024/04/06 02:19:39;;;;;;;3.03;1.20;;;;;;;;;;10189829;29;20044;-82
2024/04/06 02:24:43;;;;;;;3.78;1.02;;;;;;;;;;10218320;28;20055;-82
2024/04/06 02:29:45;;;;;;;4.13;1.67;;;;;;;;;;10207010;28;20054;-82
2024/04/06 02:34:48;;;;;;;2.35;1.40;;;;;;;;;;10218535;28;20043;-82
2024/04/06 02:39:51;;;;;;;3.45;2.10;;;;;;;;;;10218020;28;20043;-82
2024/04/06 02:44:54;;;;;;;2.88;1.67;;;;;;;;;;10206881;28;20052;-81
2024/04/06 02:49:56;;;;;;;1.95;1.33;;;;;;;;;;10175583;29;20717;-81
2024/04/06 02:55:00;;;;;;;2.30;1.45;;;;;;;;;;10176732;29;20052;-82
2024/04/06 03:00:04;;;;;;;2.25;1.20;;;;;;;;;;10178544;29;20048;-82
2024/04/06 03:05:06;;;;;;;2.05;1.10;;;;;;;;;;10187942;29;20112;-86
2024/04/06 03:10:10;;;;;;;1.67;1.05;;;;;;;;;;10189009;29;20054;-81
2024/04/06 03:15:12;;;;;;;2.30;1.35;;;;;;;;;;10182130;28;20415;-81
2024/04/06 03:20:15;;;;;;;2.03;1.30;;;;;;;;;;10178764;29;20456;-81
2024/04/06 03:25:19;;;;;;;1.77;1.08;;;;;;;;;;10181523;29;20069;-82
2024/04/06 03:30:21;;;;;;;2.53;0.95;;;;;;;;;;10197028;28;20500;-82
2024/04/06 03:35:24;;;;;;;3.92;1.13;;;;;;;;;;10177284;29;20062;-82
2024/04/06 03:40:27;;;;;;;1.63;0.55;;;;;;;;;;10165695;29;20050;-82
2024/04/06 03:45:30;;;;;;;0.90;0.57;;;;;;;;;;10188177;29;20043;-82
2024/04/06 03:50:32;;;;;;;0.85;0.57;;;;;;;;;;10198781;28;20056;-82
2024/04/06 03:55:36;;;;;;;0.77;0.68;;;;;;;;;;10217294;29;20729;-82
2024/04/06 04:00:39;;;;;;;2.08;0.70;;;;;;;;;;10212088;29;20094;-82
2024/04/06 04:05:41;;;;;;;1.05;0.65;;;;;;;;;;10207904;29;20877;-82
2024/04/06 04:10:46;;;;;;;0.77;0.65;;;;;;;;;;10196291;28;20106;-82
2024/04/06 04:15:48;;;;;;;2.17;1.10;;;;;;;;;;10182342;29;20396;-82
2024/04/06 04:20:51;;;;;;;1.00;0.65;;;;;;;;;;10166463;29;20052;-82
2024/04/06 04:25:54;;;;;;;1.55;0.75;;;;;;;;;;10201608;28;20822;-83
2024/04/06 04:30:57;;;;;;;1.08;0.77;;;;;;;;;;10186688;29;20051;-83
2024/04/06 04:35:59;;;;;;;2.20;0.70;;;;;;;;;;10184331;29;20550;-82
2024/04/06 04:41:03;;;;;;;1.13;0.70;;;;;;;;;;10185210;29;20054;-82
2024/04/06 04:46:06;;;;;;;1.17;0.60;;;;;;;;;;10180763;29;20720;-82
2024/04/06 04:51:09;;;;;;;1.88;0.90;;;;;;;;;;10182884;29;20044;-82
2024/04/06 04:56:13;;;;;;;1.88;0.80;;;;;;;;;;10187148;29;20058;-82
2024/04/06 05:01:16;;;;;;;2.88;0.88;;;;;;;;;;10198649;29;20039;-81
2024/04/06 05:06:18;;;;;;;1.98;0.73;;;;;;;;;;10189991;29;20057;-81
2024/04/06 05:11:22;;;;;;;1.02;0.80;;;;;;;;;;10176713;29;20039;-82
2024/04/06 05:16:24;;;;;;;1.05;0.60;;;;;;;;;;10205203;29;20499;-81
2024/04/06 05:21:26;;;;;;;1.35;0.70;;;;;;;;;;10279815;23;20552;-74
2024/04/06 05:26:30;;;;;;;3.97;0.98;;;;;;;;;;10269352;28;20043;-73
2024/04/06 05:31:32;;;;;;;1.45;0.80;;;;;;;;;;10272977;28;20050;-73
2024/04/06 05:36:35;;;;;;;1.42;1.08;;;;;;;;;;10267025;28;20043;-73
2024/04/06 05:41:38;;;;;;;1.40;0.85;;;;;;;;;;10305806;28;20050;-74
2024/04/06 05:46:41;;;;;;;2.63;0.70;;;;;;;;;;10313805;28;20050;-73
2024/04/06 05:51:43;;;;;;;0.70;0.60;;;;;;;;;;10309756;28;20050;-73
2024/04/06 05:56:47;;;;;;;2.42;0.60;;;;;;;;;;10291842;28;20061;-73
2024/04/06 06:01:49;;;;;;;3.72;0.73;;;;;;;;;;10289834;28;20406;-74
2024/04/06 06:06:51;;;;;;;2.05;0.85;;;;;;;;;;10300624;28;20494;-73
2024/04/06 06:11:55;;;;;;;1.38;0.70;;;;;;;;;;10301475;28;20054;-73
2024/04/06 06:16:57;;;;;;;1.75;0.90;;;;;;;;;;10305073;28;20057;-73
2024/04/06 06:22:00;;;;;;;0.63;0.57;;;;;;;;;;10315807;28;20391;-73
2024/04/06 06:27:04;;;;;;;0.88;0.68;;;;;;;;;;10317758;28;20516;-74
2024/04/06 06:32:06;;;;;;;2.10;0.70;;;;;;;;;;10317384;28;20876;-73
2024/04/06 06:37:08;;;;;;;2.00;0.73;;;;;;;;;;10305694;28;20045;-74
2024/04/06 06:42:13;;;;;;;1.08;0.50;;;;;;;;;;10316475;28;20046;-73
2024/04/06 06:47:15;;;;;;;1.15;0.70;;;;;;;;;;10314706;28;20049;-74
2024/04/06 06:52:17;;;;;;;1.15;0.55;;;;;;;;;;10309292;28;20042;-74
2024/04/06 06:57:22;;;;;;;0.60;0.60;;;;;;;;;;10305445;28;20454;-73
2024/04/06 07:02:24;;;;;;;0.40;0.40;;;;;;;;;;10311925;28;20104;-73
2024/04/06 07:07:26;;;;;;;0.30;0.30;;;;;;;;;;10314138;28;20034;-73
2024/04/06 07:12:30;;;;;;;0.60;0.50;;;;;;;;;;10305706;28;20074;-74
2024/04/06 07:17:32;;;;;;;0.82;0.57;;;;;;;;;;10291204;28;20589;-73
2024/04/06 07:22:35;;;;;;;0.98;0.47;;;;;;;;;;10302991;28;20066;-73
2024/04/06 07:27:38;;;;;;;1.90;0.50;;;;;;;;;;10291495;28;20715;-73
2024/04/06 07:32:41;;;;;;;1.80;0.93;;;;;;;;;;10296326;28;20049;-73
2024/04/06 07:37:43;;;;;;;2.28;0.50;;;;;;;;;;10313205;28;20690;-74
2024/04/06 07:42:47;;;;;;;2.67;0.65;;;;;;;;;;10305012;28;20054;-74
2024/04/06 07:47:49;;;;;;;0.93;0.50;;;;;;;;;;10312526;28;20053;-73
2024/04/06 07:52:52;;;;;;;0.40;0.38;;;;;;;;;;10300052;28;20050;-74
2024/04/06 07:57:55;;;;;;;0.75;0.55;;;;;;;;;;10306691;28;20057;-73
2024/04/06 08:02:58;;;;;;;0.88;0.40;;;;;;;;;;10308853;28;20582;-74
2024/04/06 08:08:02;;;;;;;0.38;0.30;;;;;;;;;;10302750;28;20046;-74
2024/04/06 08:13:06;;;;;;;1.00;0.55;;;;;;;;;;10306973;28;20058;-74
2024/04/06 08:18:08;;;;;;;0.50;0.50;;;;;;;;;;10304060;28;20053;-74
2024/04/06 08:23:10;;;;;;;0.65;0.50;;;;;;;;;;10297537;28;20061;-73
2024/04/06 08:28:14;;;;;;;0.52;0.30;;;;;;;;;;10303575;28;20542;-74
2024/04/06 08:33:16;;;;;;;1.00;0.60;;;;;;;;;;10301720;28;20046;-74
2024/04/06 09:41:43;;;;;;;0.95;0.38;;;;;;;;;;10050374;29;23586;-75
2024/04/06 09:46:47;;;;;;;0.70;0.60;;;;;;;;;;10081281;29;20061;-75
2024/04/06 09:51:49;;;;;;;0.85;0.40;;;;;;;;;;10050730;29;20060;-76
2024/04/06 09:56:53;;;;;;;0.30;0.25;;;;;;;;;;10048129;29;20052;-76
2024/04/06 10:01:57;;;;;;;0.70;0.30;;;;;;;;;;10047408;29;20049;-76
2024/04/06 10:07:02;;;;;;;0.75;0.30;;;;;;;;;;10038516;29;20053;-76
2024/04/06 10:12:08;;;;;;;;;;;;;;;;;;10059048;29;20061;-76
2024/04/06 10:17:14;;;;;;;0.25;0.25;;;;;;;;;;10045054;29;19943;-76
2024/04/06 10:22:25;;;;;;;1.35;0.52;;;;;;;;;;10046543;29;20316;-76
2024/04/06 10:27:29;;;;;;;0.35;0.35;;;;;;;;;;10045440;29;20045;-76
2024/04/06 10:32:33;;;;;;;1.17;0.50;;;;;;;;;;10047031;29;20046;-76
2024/04/06 10:37:37;;;;;;;1.15;0.40;;;;;;;;;;10051966;29;20053;-76
2024/04/06 10:42:41;;;;;;;1.00;0.50;;;;;;;;;;10040264;29;20424;-76
2024/04/06 10:47:43;;;;;;;4.35;0.50;;;;;;;;;;10041467;29;20046;-75
2024/04/06 10:52:47;;;;;;;1.67;0.60;;;;;;;;;;10044307;29;20046;-75
2024/04/06 10:57:51;;;;;;;0.93;0.50;;;;;;;;;;10045426;29;20048;-75
2024/04/06 11:03:00;;;;;;;0.60;0.40;;;;;;;;;;10045142;29;20076;-76
2024/04/06 11:08:03;;;;;;;0.95;0.60;;;;;;;;;;10058174;29;20049;-75
2024/04/06 11:13:08;;;;;;;0.90;0.40;;;;;;;;;;10042877;29;20045;-75
2024/04/06 11:18:10;;;;;;;4.13;0.70;;;;;;;;;;10054057;29;20110;-75
2024/04/06 11:23:18;;;;;;;0.75;0.40;;;;;;;;;;10039998;29;20573;-75
2024/04/06 11:28:22;;;;;;;0.73;0.50;;;;;;;;;;10040486;29;20060;-75
2024/04/06 11:33:25;;;;;;;1.02;0.40;;;;;;;;;;10040783;29;20488;-75
2024/04/06 11:38:28;;;;;;;1.33;0.50;;;;;;;;;;10040487;29;20493;-75
2024/04/06 11:43:32;;;;;;;0.85;0.52;;;;;;;;;;10055019;29;20053;-75
2024/04/06 11:48:34;;;;;;;0.63;0.40;;;;;;;;;;10056206;29;20057;-75
2024/04/06 11:53:38;;;;;;;0.63;0.30;;;;;;;;;;10052440;29;20056;-75
2024/04/06 11:58:41;;;;;;;1.13;0.60;;;;;;;;;;10043275;29;20057;-75
2024/04/06 12:03:44;;;;;;;0.50;0.45;;;;;;;;;;10043727;29;20049;-75
2024/04/06 12:08:46;;;;;;;0.65;0.38;;;;;;;;;;10042934;29;20481;-75
2024/04/06 12:13:50;;;;;;;1.83;0.52;;;;;;;;;;10044370;29;20054;-75
2024/04/06 12:18:53;;;;;;;0.40;0.30;;;;;;;;;;10047568;29;20069;-75
2024/04/06 12:23:55;;;;;;;0.68;0.40;;;;;;;;;;10047479;29;20064;-75
2024/04/06 12:28:59;;;;;;;1.83;0.30;;;;;;;;;;10062401;29;20057;-75
2024/04/06 12:34:01;;;;;;;0.90;0.40;;;;;;;;;;10050140;29;20054;-75
2024/04/06 12:39:09;;;;;;;0.57;0.43;;;;;;;;;;10064104;29;20061;-75
2024/04/06 12:44:12;;;;;;;0.73;0.28;;;;;;;;;;10062926;29;20488;-75
2024/04/06 12:49:15;;;;;;;0.65;0.30;;;;;;;;;;10064023;29;20045;-75
2024/04/06 12:54:17;;;;;;;0.50;0.28;;;;;;;;;;10050210;29;20061;-75
2024/04/06 12:59:21;;;;;;;1.08;0.60;;;;;;;;;;10052536;29;20065;-75
2024/04/06 13:04:23;;;;;;;1.40;0.50;;;;;;;;;;10049422;29;20049;-75
2024/04/06 13:09:25;;;;;;;1.00;0.35;;;;;;;;;;10049484;29;20053;-75
2024/04/06 13:14:29;;;;;;;0.52;0.20;;;;;;;;;;10051043;29;20057;-75
2024/04/06 13:19:32;;;;;;;0.38;0.30;;;;;;;;;;10047103;29;20086;-75
2024/04/06 13:24:34;;;;;;;0.40;0.20;;;;;;;;;;10046387;29;20058;-75
2024/04/06 13:29:38;;;;;;;0.90;0.30;;;;;;;;;;10047668;29;20512;-75
2024/04/06 13:34:50;;;;;;;0.35;0.10;;;;;;;;;;10049650;29;20065;-75
2024/04/06 13:39:53;;;;;;;2.17;0.28;;;;;;;;;;10063078;29;20057;-76
2024/04/06 13:44:57;;;;;;;0.63;0.40;;;;;;;;;;10047642;29;20046;-75
2024/04/06 13:49:59;;;;;;;2.47;0.73;;;;;;;;;;10044806;29;20049;-76
2024/04/06 13:55:03;;;;;;;1.40;0.30;;;;;;;;;;10063828;29;20061;-75
2024/04/06 14:00:09;;;;;;;0.65;0.40;;;;;;;;;;10047036;29;20556;-75
2024/04/06 14:05:15;;;;;;;0.40;0.20;;;;;;;;;;10048132;29;20076;-75
2024/04/06 14:10:17;;;;;;;0.93;0.30;;;;;;;;;;10047110;29;20053;-75
2024/04/06 14:15:21;;;;;;;0.50;0.28;;;;;;;;;;10047946;29;20054;-75
2024/04/06 14:20:23;;;;;;;0.40;0.40;;;;;;;;;;10062340;29;20516;-75
2024/04/06 14:25:26;;;;;;;0.20;0.20;;;;;;;;;;10048990;29;20064;-75
2024/04/06 14:30:30;;;;;;;0.40;0.20;;;;;;;;;;10047461;29;20429;-75
2024/04/06 14:35:32;;;;;;;0.70;0.30;;;;;;;;;;10049588;29;20072;-75
2024/04/06 14:40:34;;;;;;;0.43;0.40;;;;;;;;;;10055217;29;20061;-75
2024/04/06 14:45:38;;;;;;;0.45;0.35;;;;;;;;;;10048273;29;20433;-75
2024/04/06 14:50:40;;;;;;;0.20;0.15;;;;;;;;;;10049075;29;20066;-76
2024/04/06 14:55:43;;;;;;;0.40;0.40;;;;;;;;;;10050960;29;20053;-75
2024/04/06 15:00:46;;;;;;;1.10;0.32;;;;;;;;;;10059571;29;20060;-75
2024/04/06 15:05:49;;;;;;;1.48;0.60;;;;;;;;;;10054370;29;20064;-75
2024/04/06 15:10:51;;;;;;;0.40;0.32;;;;;;;;;;10046686;29;20054;-75
2024/04/06 15:15:56;;;;;;;1.05;0.32;;;;;;;;;;10047656;29;20060;-75
2024/04/06 15:20:58;;;;;;;1.07;0.30;;;;;;;;;;10045956;29;20406;-75
2024/04/06 15:26:00;;;;;;;1.13;0.50;;;;;;;;;;10047183;29;20049;-75
2024/04/06 15:31:05;;;;;;;0.30;0.28;;;;;;;;;;10050639;29;20058;-75
2024/04/06 15:36:07;;;;;;;1.27;0.53;;;;;;;;;;10053555;29;20056;-75
2024/04/06 15:41:10;;;;;;;2.70;0.45;;;;;;;;;;10043860;29;20053;-75
2024/04/06 15:46:13;;;;;;;0.50;0.30;;;;;;;;;;10051064;29;20048;-75
2024/04/06 15:51:16;;;;;;;0.40;0.40;;;;;;;;;;10053677;29;20054;-75
2024/04/06 15:56:18;;;;;;;1.80;0.60;;;;;;;;;;10050323;29;20076;-75
2024/04/06 16:01:22;;;;;;;1.00;0.80;;;;;;;;;;10051994;29;20057;-75
2024/04/06 16:06:25;;;;;;;2.20;0.80;;;;;;;;;;10049679;29;20432;-75
2024/04/06 16:11:36;;;;;;;0.90;0.52;;;;;;;;;;10047007;29;20118;-75
2024/04/06 16:16:40;;;;;;;3.47;0.80;;;;;;;;;;10049335;29;20045;-75
2024/04/06 16:21:42;;;;;;;1.23;0.50;;;;;;;;;;10049683;29;20050;-75
2024/04/06 16:26:44;;;;;;;1.52;0.80;;;;;;;;;;10043938;29;20080;-75
2024/04/06 16:31:52;;;;;;;0.82;0.50;;;;;;;;;;10044213;29;20050;-75
2024/04/06 16:36:57;;;;;;;0.63;0.47;;;;;;;;;;10046539;29;20045;-75
2024/04/06 16:42:00;;;;;;;0.88;0.47;;;;;;;;;;10051477;29;20045;-75
2024/04/06 16:47:04;;;;;;;0.47;0.38;;;;;;;;;;10044221;29;20516;-75
2024/04/06 16:52:07;;;;;;;0.82;0.60;;;;;;;;;;10046209;29;20049;-75
2024/04/06 16:57:09;;;;;;;0.43;0.40;;;;;;;;;;10048258;29;20050;-76
2024/04/06 17:02:13;;;;;;;0.57;0.47;;;;;;;;;;10046859;29;20061;-75
2024/04/06 17:07:16;;;;;;;0.90;0.75;;;;;;;;;;10058361;29;20038;-75
2024/04/06 17:12:18;;;;;;;0.75;0.60;;;;;;;;;;10050639;29;20098;-76
2024/04/06 17:17:22;;;;;;;0.50;0.40;;;;;;;;;;10054089;29;20337;-75
2024/04/06 17:22:25;;;;;;;0.82;0.60;;;;;;;;;;10048181;29;20057;-76
2024/04/06 17:27:27;;;;;;;1.15;0.70;;;;;;;;;;10050806;29;20041;-75
2024/04/06 17:32:31;;;;;;;2.47;0.90;;;;;;;;;;10051900;29;20060;-75
2024/04/06 17:37:33;;;;;;;0.80;0.70;;;;;;;;;;10050855;29;20045;-75
2024/04/06 17:42:36;;;;;;;2.20;1.08;;;;;;;;;;10051801;29;20060;-75
2024/04/06 17:47:39;;;;;;;2.70;1.40;;;;;;;;;;10052740;29;20105;-75
2024/04/06 17:52:42;;;;;;;1.42;0.80;;;;;;;;;;10051780;29;20053;-75
2024/04/06 17:57:44;;;;;;;1.67;0.88;;;;;;;;;;10055044;29;20057;-75
2024/04/06 18:02:49;;;;;;;0.70;0.70;;;;;;;;;;10048905;29;20135;-75
2024/04/06 18:07:51;;;;;;;2.03;0.88;;;;;;;;;;10050659;29;20053;-75
2024/04/06 18:12:54;;;;;;;2.28;0.80;;;;;;;;;;10052959;29;20053;-75
2024/04/06 18:17:59;;;;;;;1.05;0.70;;;;;;;;;;10049468;29;20045;-75
2024/04/06 18:23:23;;;;;;;1.67;0.82;;;;;;;;;;10039880;29;20086;-75
2024/04/06 18:28:55;;;;;;;1.55;0.98;;;;;;;;;;10051695;29;20053;-75
2024/04/06 18:33:59;;;;;;;1.83;0.90;;;;;;;;;;10050455;29;20143;-75
2024/04/06 18:39:01;;;;;;;1.27;0.98;;;;;;;;;;10049242;29;20050;-75
2024/04/06 18:44:05;;;;;;;1.38;0.70;;;;;;;;;;10063871;29;20053;-75
2024/04/06 18:49:08;;;;;;;1.20;0.82;;;;;;;;;;10062308;29;20056;-75
2024/04/06 18:54:11;;;;;;;1.08;0.70;;;;;;;;;;10061970;29;20113;-75
2024/04/06 18:59:13;;;;;;;1.40;0.90;;;;;;;;;;10049670;29;20057;-75
2024/04/06 19:04:17;;;;;;;0.73;0.70;;;;;;;;;;10032359;29;20523;-75
2024/04/06 19:09:19;;;;;;;0.65;0.50;;;;;;;;;;10062135;29;20045;-75
2024/04/06 19:14:22;;;;;;;1.48;0.50;;;;;;;;;;10058579;29;20060;-75
2024/04/06 19:19:26;;;;;;;1.35;0.50;;;;;;;;;;10057629;29;20057;-75
2024/04/06 19:24:28;;;;;;;1.67;0.70;;;;;;;;;;10052594;29;20105;-75
2024/04/06 19:29:30;;;;;;;1.13;0.60;;;;;;;;;;10039690;29;20045;-75
2024/04/06 19:34:34;;;;;;;1.35;0.70;;;;;;;;;;10039564;29;20063;-75
2024/04/06 19:39:36;;;;;;;1.00;0.60;;;;;;;;;;10039021;29;20044;-75
2024/04/06 19:44:40;;;;;;;1.20;0.98;;;;;;;;;;10042981;29;20057;-75
2024/04/06 19:49:45;;;;;;;1.45;1.00;;;;;;;;;;10042112;29;20501;-75
2024/04/06 19:54:47;;;;;;;3.17;2.35;;;;;;;;;;10042997;29;20118;-75
2024/04/06 20:00:36;;;;;;;2.97;1.88;;;;;;;;;;10045839;29;20420;-75
2024/04/06 20:05:40;;;;;;;1.83;1.50;;;;;;;;;;10053445;29;20049;-75
2024/04/06 20:10:43;;;;;;;5.15;1.30;;;;;;;;;;10043697;29;20060;-75
2024/04/06 20:15:45;;;;;;;1.77;1.25;;;;;;;;;;10042169;29;20056;-75
2024/04/06 20:20:49;;;;;;;1.00;0.73;;;;;;;;;;10046509;29;20068;-75
2024/04/06 20:26:05;;;;;;;1.33;0.60;;;;;;;;;;10043131;29;20048;-75
2024/04/06 20:31:07;;;;;;;0.95;0.50;;;;;;;;;;10057295;29;20100;-75
2024/04/06 20:36:11;;;;;;;0.60;0.60;;;;;;;;;;10049614;29;20048;-75
2024/04/06 20:41:15;;;;;;;1.50;0.50;;;;;;;;;;10051408;29;20264;-75
2024/04/06 20:46:18;;;;;;;0.93;0.50;;;;;;;;;;10071495;29;20045;-75
2024/04/06 20:51:23;;;;;;;0.70;0.60;;;;;;;;;;10061865;29;20041;-75
2024/04/06 20:56:25;;;;;;;2.65;0.50;;;;;;;;;;10053399;29;20053;-75
2024/04/06 21:01:27;;;;;;;0.57;0.40;;;;;;;;;;10056942;29;20053;-75
2024/04/06 21:06:31;;;;;;;0.73;0.50;;;;;;;;;;10068215;29;20053;-75
2024/04/06 21:11:33;;;;;;;1.00;0.60;;;;;;;;;;10046211;29;20061;-75
2024/04/06 21:16:36;;;;;;;0.60;0.52;;;;;;;;;;10054299;29;20463;-75
2024/04/06 21:21:40;;;;;;;1.85;0.82;;;;;;;;;;10055422;29;20049;-75
2024/04/06 21:26:42;;;;;;;1.38;0.70;;;;;;;;;;10052449;29;20505;-75
2024/04/06 21:31:44;;;;;;;1.10;0.55;;;;;;;;;;10052642;29;20051;-75
2024/04/06 21:36:48;;;;;;;0.90;0.60;;;;;;;;;;10066000;29;20052;-75
2024/04/06 21:41:51;;;;;;;1.00;0.50;;;;;;;;;;10050364;29;20060;-75
2024/04/06 21:46:53;;;;;;;2.25;0.70;;;;;;;;;;10064884;29;20049;-75
2024/04/06 21:51:57;;;;;;;1.27;0.55;;;;;;;;;;10122873;23;20047;-74
2024/04/06 21:56:59;;;;;;;1.08;0.50;;;;;;;;;;10243662;28;20055;-74
2024/04/06 22:02:03;;;;;;;1.92;0.50;;;;;;;;;;10237076;28;20141;-74
2024/04/06 22:07:07;;;;;;;0.55;0.40;;;;;;;;;;10238926;28;20138;-75
2024/04/06 22:12:10;;;;;;;3.28;0.50;;;;;;;;;;10239632;28;20517;-75
2024/04/06 22:17:13;;;;;;;0.73;0.50;;;;;;;;;;10225541;28;20043;-75
2024/04/06 22:22:16;;;;;;;0.70;0.55;;;;;;;;;;10235780;28;20047;-75
2024/04/06 22:27:19;;;;;;;0.93;0.40;;;;;;;;;;10238444;28;20083;-74
2024/04/06 22:32:21;;;;;;;1.02;0.40;;;;;;;;;;10210181;28;20055;-74
2024/04/06 22:37:25;;;;;;;1.10;0.40;;;;;;;;;;10241537;28;20054;-74
2024/04/06 22:42:32;;;;;;;1.20;0.60;;;;;;;;;;10236748;28;20082;-74
2024/04/06 22:47:34;;;;;;;1.73;0.38;;;;;;;;;;10234433;28;20051;-74
2024/04/06 22:52:38;;;;;;;0.80;0.40;;;;;;;;;;10231329;28;20098;-74
2024/04/06 22:57:41;;;;;;;1.77;0.50;;;;;;;;;;10233126;28;20463;-75
2024/04/06 23:02:43;;;;;;;0.35;0.35;;;;;;;;;;10234350;28;20052;-74
2024/04/06 23:07:47;;;;;;;1.27;0.43;;;;;;;;;;10236099;28;20150;-74
2024/04/06 23:12:50;;;;;;;1.50;0.70;;;;;;;;;;10236644;28;20127;-74
2024/04/06 23:17:52;;;;;;;1.88;0.63;;;;;;;;;;10232050;28;20055;-74
2024/04/06 23:22:56;;;;;;;0.90;0.47;;;;;;;;;;10234269;28;20079;-74
2024/04/06 23:27:59;;;;;;;1.33;0.50;;;;;;;;;;10206694;28;20574;-74
2024/04/06 23:33:01;;;;;;;1.15;0.60;;;;;;;;;;10225212;28;20134;-74
2024/04/06 23:38:05;;;;;;;2.00;0.60;;;;;;;;;;10224629;28;20506;-75
2024/04/06 23:43:07;;;;;;;2.72;0.63;;;;;;;;;;10225402;28;20430;-75
2024/04/06 23:48:11;;;;;;;4.93;1.05;;;;;;;;;;10229887;28;20044;-75
2024/04/06 23:53:16;;;;;;;1.17;0.45;;;;;;;;;;10232096;28;20150;-74
2024/04/06 23:58:19;;;;;;;1.45;0.50;;;;;;;;;;10213006;28;20126;-74
